Time;durP1;ratioP1;P1;durP2;ratioP2;P2;SDS_P1;SDS_P2;PMS_P1;PMS_P2;Temp;Humidity;BMP_temperature;BMP_pressure;BME280_temperature;BME280_humidity;BME280_pressure;Samples;Min_cycle;Max_cycle;Signal;HPM_P1;HPM_P2
2022/11/17 00:01:42;;;;;;;1.58;1.45;;;11.80;99.90;;;;;;5092389;28;20470;-77
2022/11/17 00:04:08;;;;;;;1.88;1.52;;;11.90;99.90;;;;;;5091158;28;20473;-77
2022/11/17 00:06:33;;;;;;;2.40;1.90;;;11.80;99.90;;;;;;5092339;28;20371;-77
2022/11/17 00:08:59;;;;;;;2.53;1.60;;;11.80;99.90;;;;;;5092090;28;20482;-77
2022/11/17 00:11:25;;;;;;;2.30;2.10;;;11.80;99.90;;;;;;5092003;28;20058;-77
2022/11/17 00:16:35;;;;;;;3.00;1.88;;;11.80;99.90;;;;;;5092257;28;20073;-77
2022/11/17 00:21:44;;;;;;;2.45;2.22;;;11.70;99.90;;;;;;5091964;28;20078;-77
2022/11/17 00:24:14;;;;;;;4.13;2.40;;;11.70;99.90;;;;;;5091745;28;20052;-77
2022/11/17 00:27:00;;;;;;;3.10;1.90;;;11.60;99.90;;;;;;5082091;28;20027;-77
2022/11/17 00:29:26;;;;;;;3.47;2.22;;;11.60;99.90;;;;;;5071504;28;20029;-77
2022/11/17 00:34:36;;;;;;;5.22;2.50;;;11.70;99.90;;;;;;5072038;28;20035;-77
2022/11/17 00:37:02;;;;;;;2.33;2.13;;;11.80;99.90;;;;;;5071525;28;20028;-77
2022/11/17 00:39:28;;;;;;;3.17;2.28;;;11.80;99.90;;;;;;5071779;28;20021;-77
2022/11/17 00:41:54;;;;;;;2.85;2.20;;;11.80;99.90;;;;;;5088987;28;20027;-77
2022/11/17 00:44:20;;;;;;;4.32;1.95;;;11.80;99.90;;;;;;5112324;28;20240;-77
2022/11/17 00:46:46;;;;;;;2.65;2.10;;;11.70;99.90;;;;;;5110924;28;20489;-77
2022/11/17 00:49:11;;;;;;;2.92;2.13;;;11.80;99.90;;;;;;5108679;28;20485;-77
2022/11/17 00:51:38;;;;;;;2.03;1.70;;;11.80;99.90;;;;;;5094856;28;20449;-77
2022/11/17 00:54:05;;;;;;;2.45;1.85;;;11.90;99.90;;;;;;5095855;28;20036;-77
2022/11/17 00:56:31;;;;;;;3.17;2.00;;;11.80;99.90;;;;;;5095281;28;20040;-77
2022/11/17 00:58:57;;;;;;;2.40;2.20;;;11.80;99.90;;;;;;5095892;28;20021;-77
2022/11/17 01:01:23;;;;;;;2.83;2.17;;;11.80;99.90;;;;;;5095396;28;20117;-77
2022/11/17 01:03:48;;;;;;;3.00;1.92;;;11.80;99.90;;;;;;5095631;28;20024;-77
2022/11/17 01:06:18;;;;;;;2.40;1.83;;;11.80;99.90;;;;;;5095711;28;20149;-77
2022/11/17 01:08:44;;;;;;;2.00;1.80;;;11.80;99.90;;;;;;5095639;28;20024;-77
2022/11/17 01:11:11;;;;;;;3.42;2.22;;;11.80;99.90;;;;;;5095020;28;20035;-77
2022/11/17 01:13:38;;;;;;;2.22;1.77;;;11.80;99.90;;;;;;5094106;28;20562;-77
2022/11/17 01:16:12;;;;;;;2.45;1.70;;;11.80;99.90;;;;;;5093974;28;20028;-77
2022/11/17 01:18:39;;;;;;;2.45;1.83;;;11.70;99.90;;;;;;5095348;28;20050;-77
2022/11/17 01:21:11;;;;;;;2.03;1.90;;;11.70;99.90;;;;;;5095241;28;20024;-77
2022/11/17 01:23:38;;;;;;;3.38;1.90;;;11.60;99.90;;;;;;5094997;28;20059;-77
2022/11/17 01:26:06;;;;;;;3.30;2.20;;;11.50;99.90;;;;;;5089856;28;20020;-77
2022/11/17 01:28:32;;;;;;;2.20;1.63;;;11.60;99.90;;;;;;5074927;28;20038;-77
2022/11/17 01:31:04;;;;;;;2.38;1.92;;;11.60;99.90;;;;;;5074820;28;20036;-77
2022/11/17 01:33:30;;;;;;;2.00;1.83;;;11.60;99.90;;;;;;5075069;28;20028;-77
2022/11/17 01:36:00;;;;;;;2.05;1.83;;;11.40;99.90;;;;;;5074989;28;20516;-77
2022/11/17 01:38:26;;;;;;;2.63;1.80;;;11.40;99.90;;;;;;5074510;28;20036;-77
2022/11/17 01:40:52;;;;;;;3.03;1.80;;;11.50;99.90;;;;;;5074839;28;20024;-77
2022/11/17 01:43:51;;;;;;;2.20;1.75;;;11.50;99.90;;;;;;5114495;28;20027;-77
2022/11/17 01:46:33;;;;;;;2.92;2.10;;;11.50;99.90;;;;;;5113873;28;20489;-77
2022/11/17 01:49:23;;;;;;;2.45;1.88;;;11.40;99.90;;;;;;5114825;28;20020;-77
2022/11/17 01:51:54;;;;;;;1.92;1.80;;;11.40;99.90;;;;;;5094504;28;20024;-77
2022/11/17 01:54:23;;;;;;;2.30;2.10;;;11.40;99.90;;;;;;5094339;28;20509;-77
2022/11/17 01:56:51;;;;;;;2.30;1.85;;;11.30;99.90;;;;;;5094424;28;20075;-77
2022/11/17 01:59:25;;;;;;;1.95;1.85;;;11.40;99.90;;;;;;5094448;28;20020;-77
2022/11/17 02:01:56;;;;;;;2.05;1.80;;;11.40;99.90;;;;;;5093066;28;20043;-77
2022/11/17 02:04:25;;;;;;;2.25;1.67;;;11.30;99.90;;;;;;5094419;28;20509;-77
2022/11/17 02:06:54;;;;;;;2.88;2.20;;;11.30;99.90;;;;;;5094344;28;20036;-77
2022/11/17 02:09:22;;;;;;;2.65;1.73;;;11.20;99.90;;;;;;5094064;28;20070;-77
2022/11/17 02:11:48;;;;;;;3.78;2.10;;;11.30;99.90;;;;;;5093665;28;20028;-77
2022/11/17 02:14:14;;;;;;;3.25;1.80;;;11.30;99.90;;;;;;5094299;28;20016;-77
2022/11/17 02:16:39;;;;;;;1.80;1.60;;;11.40;99.90;;;;;;5094146;28;20485;-77
2022/11/17 02:19:07;;;;;;;2.38;1.80;;;11.50;99.90;;;;;;5093779;28;20111;-77
2022/11/17 02:22:08;;;;;;;3.65;2.08;;;11.60;99.90;;;;;;5092707;28;20485;-77
2022/11/17 02:25:05;;;;;;;2.45;2.15;;;11.60;99.90;;;;;;5093378;28;20559;-77
2022/11/17 02:27:46;;;;;;;4.53;2.22;;;11.60;99.90;;;;;;5075629;28;20064;-77
2022/11/17 02:30:18;;;;;;;1.83;1.65;;;11.60;99.90;;;;;;5072343;28;20032;-76
2022/11/17 02:33:10;;;;;;;2.50;1.98;;;11.60;99.90;;;;;;5073553;28;20107;-77
2022/11/17 02:36:05;;;;;;;3.72;2.13;;;11.60;99.90;;;;;;5073929;28;20021;-77
2022/11/17 02:38:34;;;;;;;2.40;1.75;;;11.60;99.90;;;;;;5073289;28;20032;-77
2022/11/17 02:41:18;;;;;;;3.90;1.80;;;11.60;99.90;;;;;;5075788;28;20123;-77
2022/11/17 02:44:03;;;;;;;3.95;2.22;;;11.50;99.90;;;;;;5113901;28;20068;-76
2022/11/17 02:46:42;;;;;;;2.80;2.10;;;11.60;99.90;;;;;;5114088;28;20042;-77
2022/11/17 02:49:18;;;;;;;3.28;2.30;;;11.60;99.90;;;;;;5110858;28;20024;-77
2022/11/17 02:51:49;;;;;;;3.85;2.17;;;11.50;99.90;;;;;;5093648;28;20020;-76
2022/11/17 02:54:15;;;;;;;3.23;2.23;;;11.50;99.90;;;;;;5093003;28;20100;-77
2022/11/17 02:56:42;;;;;;;2.47;2.28;;;11.50;99.90;;;;;;5093487;28;20069;-77
2022/11/17 02:59:10;;;;;;;3.40;2.75;;;11.50;99.90;;;;;;5093557;28;20024;-77
2022/11/17 03:01:48;;;;;;;3.35;2.55;;;11.50;99.90;;;;;;5093338;28;20029;-77
2022/11/17 03:04:31;;;;;;;4.78;2.10;;;11.50;99.90;;;;;;5093518;28;20048;-76
2022/11/17 03:07:08;;;;;;;3.13;2.55;;;11.50;99.90;;;;;;5092909;28;20646;-77
2022/11/17 03:09:57;;;;;;;2.65;2.33;;;11.60;99.90;;;;;;5093271;28;20031;-77
2022/11/17 03:12:48;;;;;;;3.20;2.40;;;11.60;99.90;;;;;;5092754;28;20473;-77
2022/11/17 03:15:42;;;;;;;3.38;2.03;;;11.70;99.90;;;;;;5093065;28;20024;-77
2022/11/17 03:18:17;;;;;;;3.03;2.03;;;11.70;99.90;;;;;;5093065;28;20059;-77
2022/11/17 03:20:45;;;;;;;3.92;2.40;;;11.70;99.90;;;;;;5092905;28;20024;-77
2022/11/17 03:23:20;;;;;;;3.22;2.40;;;11.70;99.90;;;;;;5091408;28;20024;-78
2022/11/17 03:25:53;;;;;;;3.53;2.28;;;11.70;99.90;;;;;;5090142;28;20051;-77
2022/11/17 03:28:22;;;;;;;2.83;1.95;;;11.70;99.90;;;;;;5071253;28;20107;-77
2022/11/17 03:30:49;;;;;;;2.40;1.83;;;11.80;99.90;;;;;;5072580;28;20058;-77
2022/11/17 03:33:19;;;;;;;2.92;2.08;;;11.80;99.90;;;;;;5072554;28;20052;-77
2022/11/17 03:35:52;;;;;;;3.17;1.92;;;11.80;99.90;;;;;;5072442;28;20063;-77
2022/11/17 03:38:21;;;;;;;2.95;1.77;;;11.80;99.90;;;;;;5072263;28;20032;-77
2022/11/17 03:40:49;;;;;;;3.35;1.83;;;11.90;99.90;;;;;;5072385;28;20115;-77
2022/11/17 03:43:18;;;;;;;2.65;1.80;;;11.90;99.90;;;;;;5112707;28;20103;-77
2022/11/17 03:45:57;;;;;;;3.50;1.70;;;11.90;99.90;;;;;;5112846;28;20032;-77
2022/11/17 03:48:33;;;;;;;2.50;1.70;;;11.80;99.90;;;;;;5112854;28;20016;-77
2022/11/17 03:51:14;;;;;;;2.38;1.70;;;11.70;99.90;;;;;;5095331;28;20028;-77
2022/11/17 03:53:41;;;;;;;3.85;2.22;;;11.70;99.90;;;;;;5092433;28;20065;-77
2022/11/17 03:56:25;;;;;;;2.95;1.80;;;11.80;99.90;;;;;;5092133;28;20488;-77
2022/11/17 03:59:01;;;;;;;2.75;1.92;;;11.80;99.90;;;;;;5092689;28;20024;-77
2022/11/17 04:01:29;;;;;;;2.03;1.58;;;11.90;99.90;;;;;;5092577;28;20071;-77
2022/11/17 04:03:55;;;;;;;2.88;2.17;;;11.90;99.90;;;;;;5092187;28;20478;-77
2022/11/17 04:06:21;;;;;;;2.88;1.92;;;11.90;99.90;;;;;;5092144;28;20103;-77
2022/11/17 04:08:47;;;;;;;2.13;1.75;;;11.90;99.90;;;;;;5092449;28;20503;-77
2022/11/17 04:16:41;;;;;;;2.10;1.80;;;11.90;99.90;;;;;;5092062;28;20174;-77
2022/11/17 04:19:07;;;;;;;2.60;1.73;;;11.80;99.90;;;;;;5092136;28;20541;-77
2022/11/17 04:21:32;;;;;;;2.47;1.75;;;11.90;99.90;;;;;;5092104;28;20024;-77
2022/11/17 04:23:58;;;;;;;3.42;2.45;;;11.70;99.90;;;;;;5091687;28;20502;-77
2022/11/17 04:29:08;;;;;;;3.22;2.00;;;11.70;99.90;;;;;;5076173;28;20035;-77
2022/11/17 04:31:34;;;;;;;2.13;1.60;;;11.70;99.90;;;;;;5075847;28;20033;-77
2022/11/17 04:34:04;;;;;;;1.73;1.60;;;11.70;99.90;;;;;;5074385;28;20029;-77
2022/11/17 04:36:36;;;;;;;1.87;1.73;;;11.80;99.90;;;;;;5076088;28;20029;-77
2022/11/17 04:39:03;;;;;;;2.17;1.60;;;11.90;99.90;;;;;;5075701;28;20028;-78
2022/11/17 04:44:16;;;;;;;1.77;1.40;;;11.90;99.90;;;;;;5116882;28;20026;-77
2022/11/17 04:46:45;;;;;;;2.25;1.58;;;12.00;99.90;;;;;;5116249;28;20023;-77
2022/11/17 04:49:12;;;;;;;2.78;1.60;;;12.00;99.90;;;;;;5112766;28;20030;-77
2022/11/17 04:51:39;;;;;;;2.22;1.45;;;12.00;99.90;;;;;;5095830;28;20125;-77
2022/11/17 04:54:06;;;;;;;1.40;1.30;;;12.00;99.90;;;;;;5095945;28;20095;-77
2022/11/17 04:56:32;;;;;;;2.08;1.42;;;12.00;99.90;;;;;;5095889;28;20024;-77
2022/11/17 04:58:58;;;;;;;1.88;1.40;;;12.10;99.90;;;;;;5095710;28;20042;-77
2022/11/17 05:01:25;;;;;;;2.70;1.40;;;12.10;99.90;;;;;;5094295;28;20056;-77
2022/11/17 05:03:56;;;;;;;2.70;1.70;;;12.10;99.90;;;;;;5093949;28;20020;-77
2022/11/17 05:06:25;;;;;;;1.70;1.20;;;12.00;99.90;;;;;;5095735;28;20065;-77
2022/11/17 05:08:54;;;;;;;2.65;1.30;;;12.10;99.90;;;;;;5094069;28;20020;-77
2022/11/17 05:14:05;;;;;;;1.98;1.20;;;12.10;99.90;;;;;;5095407;28;20042;-77
2022/11/17 05:19:21;;;;;;;1.95;1.50;;;12.10;99.90;;;;;;5094890;28;20090;-77
2022/11/17 05:21:47;;;;;;;2.25;1.40;;;12.20;99.90;;;;;;5095069;28;20024;-77
2022/11/17 05:24:13;;;;;;;4.63;1.83;;;12.10;99.90;;;;;;5094848;28;20146;-77
2022/11/17 05:26:40;;;;;;;1.67;1.27;;;12.20;99.90;;;;;;5085098;28;20037;-77
2022/11/17 05:29:07;;;;;;;3.25;1.63;;;12.10;99.90;;;;;;5075136;28;20073;-77
2022/11/17 05:31:34;;;;;;;2.40;1.27;;;12.10;99.90;;;;;;5074765;28;20039;-77
2022/11/17 05:34:00;;;;;;;2.70;1.48;;;12.10;99.90;;;;;;5090169;28;20081;-77
2022/11/17 05:36:27;;;;;;;1.45;1.30;;;12.10;99.90;;;;;;5090068;28;20028;-77
2022/11/17 05:38:53;;;;;;;2.55;1.45;;;12.10;99.90;;;;;;5090079;28;20039;-77
2022/11/17 05:41:19;;;;;;;1.77;1.00;;;12.20;99.90;;;;;;5097163;28;20019;-77
2022/11/17 05:43:45;;;;;;;2.33;1.30;;;12.20;99.90;;;;;;5115117;28;20023;-77
2022/11/17 05:46:12;;;;;;;3.35;1.95;;;12.30;99.90;;;;;;5115212;28;20049;-77
2022/11/17 05:48:38;;;;;;;2.92;1.50;;;12.30;99.90;;;;;;5114723;28;20061;-77
2022/11/17 05:51:04;;;;;;;3.08;1.23;;;12.40;99.90;;;;;;5097239;28;20020;-77
2022/11/17 05:53:30;;;;;;;4.43;1.42;;;12.40;99.90;;;;;;5094786;28;20440;-77
2022/11/17 05:56:28;;;;;;;4.10;1.35;;;12.40;99.90;;;;;;5094224;28;20028;-77
2022/11/17 05:59:08;;;;;;;2.10;1.48;;;12.40;99.90;;;;;;5031784;28;20046;-77
2022/11/17 06:01:41;;;;;;;3.25;1.60;;;12.40;99.90;;;;;;5031822;28;20037;-77
2022/11/17 06:04:07;;;;;;;4.35;1.52;;;12.40;99.90;;;;;;5031987;28;20067;-77
2022/11/17 06:06:36;;;;;;;4.47;1.90;;;12.50;99.90;;;;;;5031783;28;20037;-77
2022/11/17 06:09:02;;;;;;;4.47;1.70;;;12.40;99.90;;;;;;5031724;28;20063;-77
2022/11/17 06:11:28;;;;;;;3.63;1.90;;;12.40;99.90;;;;;;5014664;28;20053;-77
2022/11/17 06:13:53;;;;;;;4.60;1.63;;;12.50;99.90;;;;;;5031655;28;20565;-77
2022/11/17 06:16:24;;;;;;;4.60;1.85;;;12.50;99.90;;;;;;5031543;28;20033;-77
2022/11/17 06:18:58;;;;;;;5.38;1.92;;;12.50;99.90;;;;;;5031319;28;20037;-76
2022/11/17 06:21:23;;;;;;;5.95;2.15;;;12.50;99.90;;;;;;5031144;28;20029;-76
2022/11/17 06:23:50;;;;;;;7.88;2.65;;;12.50;99.90;;;;;;5031306;28;20107;-77
2022/11/17 06:26:15;;;;;;;6.18;2.25;;;12.50;99.90;;;;;;5031274;28;20077;-77
2022/11/17 06:28:45;;;;;;;8.60;2.45;;;12.50;99.90;;;;;;5014842;28;20530;-77
2022/11/17 06:31:12;;;;;;;6.97;2.45;;;12.40;99.90;;;;;;5031042;28;20037;-77
2022/11/17 06:33:38;;;;;;;6.50;2.45;;;12.40;99.90;;;;;;5024360;28;20035;-78
2022/11/17 06:36:06;;;;;;;5.78;1.92;;;12.40;99.90;;;;;;5093951;28;20028;-77
2022/11/17 06:38:34;;;;;;;3.75;1.90;;;12.40;99.90;;;;;;5092523;28;20036;-77
2022/11/17 06:41:00;;;;;;;3.40;1.55;;;12.40;99.90;;;;;;5094926;28;20024;-77
2022/11/17 06:43:26;;;;;;;4.40;1.92;;;12.30;99.90;;;;;;5114128;28;20023;-77
2022/11/17 06:45:52;;;;;;;3.88;1.80;;;12.30;99.90;;;;;;5113857;28;20068;-77
2022/11/17 06:48:25;;;;;;;4.75;1.85;;;12.30;99.90;;;;;;5113497;28;20111;-77
2022/11/17 06:50:53;;;;;;;4.15;1.63;;;12.30;99.90;;;;;;5097938;28;20047;-77
2022/11/17 06:53:19;;;;;;;3.70;1.77;;;12.30;99.90;;;;;;5093498;28;20099;-77
2022/11/17 06:56:07;;;;;;;3.78;1.80;;;12.30;99.90;;;;;;5093081;28;20016;-77
2022/11/17 06:58:34;;;;;;;3.55;1.60;;;12.40;99.90;;;;;;5093515;28;20365;-77
2022/11/17 07:01:07;;;;;;;4.43;1.40;;;12.40;99.90;;;;;;5093324;28;20032;-77
2022/11/17 07:03:35;;;;;;;4.97;1.58;;;12.40;99.90;;;;;;5093558;28;20025;-77
2022/11/17 07:06:02;;;;;;;1.60;1.38;;;12.40;99.90;;;;;;5093456;28;20104;-77
2022/11/17 07:08:28;;;;;;;4.03;1.50;;;12.40;99.90;;;;;;5093253;28;20031;-77
2022/11/17 07:10:54;;;;;;;3.75;1.58;;;12.40;99.90;;;;;;5093018;28;20153;-77
2022/11/17 07:13:23;;;;;;;3.10;1.70;;;12.40;99.90;;;;;;5092631;28;20118;-77
2022/11/17 07:15:50;;;;;;;3.78;1.55;;;12.40;99.90;;;;;;5092794;28;20497;-77
2022/11/17 07:18:20;;;;;;;4.53;1.20;;;12.40;99.90;;;;;;5093171;28;20024;-77
2022/11/17 07:20:46;;;;;;;3.28;1.55;;;12.50;99.90;;;;;;5092970;28;20340;-77
2022/11/17 07:23:12;;;;;;;5.63;1.65;;;12.40;99.90;;;;;;5092916;28;20047;-77
2022/11/17 07:25:38;;;;;;;3.03;1.67;;;12.50;99.90;;;;;;5091318;28;20614;-77
2022/11/17 07:28:05;;;;;;;4.28;1.60;;;12.50;99.90;;;;;;5072670;28;20119;-77
2022/11/17 07:30:30;;;;;;;4.75;1.50;;;12.60;99.90;;;;;;5088000;28;20031;-77
2022/11/17 07:32:59;;;;;;;3.50;1.92;;;12.60;99.90;;;;;;5072826;28;20024;-77
2022/11/17 07:35:26;;;;;;;4.38;2.00;;;12.60;99.90;;;;;;5071119;28;20028;-77
2022/11/17 07:38:00;;;;;;;5.15;1.95;;;12.60;99.90;;;;;;5087752;28;20029;-77
2022/11/17 07:40:27;;;;;;;5.25;2.35;;;12.60;99.90;;;;;;5071995;28;20055;-77
2022/11/17 07:42:53;;;;;;;4.97;2.00;;;12.60;99.90;;;;;;5107815;28;20027;-77
2022/11/17 07:45:20;;;;;;;7.18;2.05;;;12.60;99.90;;;;;;5113141;28;20012;-77
2022/11/17 07:47:53;;;;;;;6.22;2.45;;;12.70;99.90;;;;;;5113028;28;20051;-77
2022/11/17 07:50:18;;;;;;;4.90;2.50;;;12.70;99.90;;;;;;5101326;28;20524;-77
2022/11/17 07:52:46;;;;;;;6.68;2.75;;;12.70;99.90;;;;;;5092637;28;20055;-77
2022/11/17 07:55:11;;;;;;;6.78;3.08;;;12.80;99.90;;;;;;5092462;28;20028;-77
2022/11/17 07:57:37;;;;;;;8.10;2.70;;;12.80;99.90;;;;;;5092147;28;20517;-77
2022/11/17 08:00:03;;;;;;;12.77;3.33;;;12.80;99.90;;;;;;5092415;28;20551;-77
2022/11/17 08:02:29;;;;;;;6.38;2.40;;;12.90;99.90;;;;;;5090917;28;20081;-76
2022/11/17 08:04:54;;;;;;;9.82;2.95;;;12.90;99.90;;;;;;5092367;28;20369;-77
2022/11/17 08:07:20;;;;;;;8.18;2.50;;;12.90;99.90;;;;;;5092391;28;20028;-77
2022/11/17 08:09:46;;;;;;;6.75;2.28;;;12.90;99.90;;;;;;5092013;28;20016;-76
2022/11/17 08:12:11;;;;;;;8.07;2.30;;;13.00;99.90;;;;;;5091939;28;20379;-77
2022/11/17 08:14:37;;;;;;;9.05;2.65;;;12.90;99.90;;;;;;5092276;28;20497;-77
2022/11/17 08:17:03;;;;;;;5.13;2.30;;;13.00;99.90;;;;;;5092368;28;20500;-77
2022/11/17 08:19:28;;;;;;;6.68;2.60;;;13.00;99.90;;;;;;5092242;28;20104;-77
2022/11/17 08:21:54;;;;;;;8.80;2.95;;;13.00;99.90;;;;;;5091960;28;20021;-77
2022/11/17 08:24:20;;;;;;;7.28;2.60;;;13.10;99.90;;;;;;5090408;28;20039;-77
2022/11/17 08:26:45;;;;;;;7.63;2.67;;;13.10;99.90;;;;;;5081453;28;20033;-77
2022/11/17 08:29:11;;;;;;;5.65;2.45;;;13.10;99.90;;;;;;5072181;28;20108;-77
2022/11/17 08:31:37;;;;;;;7.13;2.20;;;13.10;99.90;;;;;;5070585;28;20020;-76
2022/11/17 08:34:03;;;;;;;6.88;2.65;;;13.10;99.90;;;;;;5072142;28;20016;-77
2022/11/17 08:36:28;;;;;;;6.38;2.67;;;13.10;99.90;;;;;;5071774;28;20471;-77
2022/11/17 08:38:54;;;;;;;8.82;2.90;;;13.20;99.90;;;;;;5071926;28;20497;-77
2022/11/17 08:41:20;;;;;;;6.38;2.25;;;13.10;99.90;;;;;;5079401;28;20469;-77
2022/11/17 08:43:46;;;;;;;6.82;2.13;;;13.10;99.90;;;;;;5111084;28;20035;-76
2022/11/17 08:46:12;;;;;;;5.90;2.53;;;13.20;99.90;;;;;;5110980;28;20032;-77
2022/11/17 08:48:38;;;;;;;4.93;2.40;;;13.20;99.90;;;;;;5112551;28;20028;-77
2022/11/17 08:51:08;;;;;;;5.70;2.00;;;13.30;99.90;;;;;;5094296;28;20512;-77
2022/11/17 08:53:34;;;;;;;7.22;2.40;;;13.40;99.90;;;;;;5092166;28;20017;-77
2022/11/17 08:56:00;;;;;;;6.35;1.98;;;13.40;99.90;;;;;;5090003;28;20638;-77
2022/11/17 08:58:25;;;;;;;5.38;2.20;;;13.50;99.90;;;;;;5091443;28;20024;-77
2022/11/17 09:00:51;;;;;;;5.30;2.10;;;13.50;99.90;;;;;;5092114;28;20024;-77
2022/11/17 09:03:17;;;;;;;6.30;2.25;;;14.50;99.90;;;;;;5092008;28;20027;-77
2022/11/17 09:05:46;;;;;;;5.68;2.15;;;14.10;99.90;;;;;;5089983;28;20115;-77
2022/11/17 09:08:13;;;;;;;5.15;2.17;;;14.60;99.90;;;;;;5092076;28;20016;-77
2022/11/17 09:10:39;;;;;;;6.03;2.80;;;14.10;99.90;;;;;;5089890;28;20565;-77
2022/11/17 09:13:05;;;;;;;9.00;2.40;;;14.20;99.90;;;;;;5094791;28;20051;-77
2022/11/17 09:15:31;;;;;;;10.05;3.08;;;14.10;99.90;;;;;;5095559;28;20115;-77
2022/11/17 09:17:57;;;;;;;7.82;2.80;;;14.10;99.90;;;;;;5093889;28;20127;-77
2022/11/17 09:20:23;;;;;;;8.38;2.40;;;14.20;99.90;;;;;;5095255;28;20505;-77
2022/11/17 09:22:49;;;;;;;9.30;2.95;;;14.10;99.90;;;;;;5095413;28;20104;-77
2022/11/17 09:25:15;;;;;;;10.93;3.17;;;14.00;99.90;;;;;;5094541;28;20047;-77
2022/11/17 09:27:41;;;;;;;8.55;2.65;;;14.00;99.90;;;;;;5076970;28;20031;-77
2022/11/17 09:30:07;;;;;;;9.40;3.13;;;14.00;99.90;;;;;;5073352;28;20033;-77
2022/11/17 09:32:34;;;;;;;9.07;3.45;;;14.30;99.90;;;;;;5090242;28;20049;-77
2022/11/17 09:35:01;;;;;;;9.65;3.67;;;14.30;99.90;;;;;;5074644;28;20032;-77
2022/11/17 09:37:27;;;;;;;9.02;2.92;;;14.40;99.90;;;;;;5073190;28;20482;-77
2022/11/17 09:39:53;;;;;;;11.27;3.50;;;14.50;99.90;;;;;;5072835;28;20055;-77
2022/11/17 09:42:21;;;;;;;8.43;3.22;;;14.50;99.90;;;;;;5099280;28;20023;-77
2022/11/17 09:44:55;;;;;;;8.68;3.05;;;14.60;99.90;;;;;;5113707;28;20089;-77
2022/11/17 09:47:24;;;;;;;13.13;3.88;;;14.50;99.90;;;;;;5113946;28;20039;-77
2022/11/17 09:49:58;;;;;;;12.73;3.70;;;14.40;99.90;;;;;;5107599;28;20115;-77
2022/11/17 09:52:41;;;;;;;7.80;3.00;;;14.40;99.90;;;;;;5094791;28;20028;-77
2022/11/17 09:55:44;;;;;;;7.10;2.70;;;14.50;99.90;;;;;;5094204;28;20520;-77
2022/11/17 09:58:26;;;;;;;8.00;2.70;;;14.60;99.90;;;;;;5031896;28;20060;-77
2022/11/17 10:00:53;;;;;;;12.48;3.40;;;14.60;99.90;;;;;;5015341;28;20038;-77
2022/11/17 10:03:25;;;;;;;11.52;3.10;;;14.60;99.90;;;;;;5032150;28;20029;-77
2022/11/17 10:05:51;;;;;;;8.50;2.70;;;14.70;99.90;;;;;;5031532;28;20040;-77
2022/11/17 10:08:33;;;;;;;11.60;3.33;;;14.70;99.90;;;;;;5031604;28;20067;-77
2022/11/17 10:10:59;;;;;;;9.88;2.80;;;14.70;99.90;;;;;;5015040;28;20025;-77
2022/11/17 10:13:30;;;;;;;9.68;2.90;;;14.70;99.90;;;;;;5031641;28;20037;-77
2022/11/17 10:15:59;;;;;;;7.38;2.58;;;14.70;99.90;;;;;;5031668;28;20029;-77
2022/11/17 10:18:26;;;;;;;8.98;2.65;;;14.80;99.90;;;;;;5031698;28;20048;-77
2022/11/17 10:20:51;;;;;;;10.57;3.47;;;14.80;99.90;;;;;;5031763;28;20028;-77
2022/11/17 10:23:20;;;;;;;8.32;2.60;;;14.90;99.90;;;;;;5030361;28;20025;-77
2022/11/17 10:25:48;;;;;;;10.85;3.25;;;15.00;99.90;;;;;;5030944;28;20049;-77
2022/11/17 10:28:30;;;;;;;7.03;2.80;;;15.10;99.90;;;;;;5031635;28;20065;-77
2022/11/17 10:31:11;;;;;;;9.05;3.47;;;15.10;99.90;;;;;;5032747;28;20029;-77
2022/11/17 10:33:41;;;;;;;7.13;2.20;;;15.20;99.90;;;;;;5093895;28;20066;-77
2022/11/17 10:36:28;;;;;;;8.88;3.22;;;15.20;99.90;;;;;;5094050;28;20258;-77
2022/11/17 10:38:57;;;;;;;12.02;3.97;;;15.20;99.90;;;;;;5093805;28;20099;-77
2022/11/17 10:41:39;;;;;;;14.23;3.83;;;15.10;99.90;;;;;;5097947;28;20012;-77
2022/11/17 10:44:26;;;;;;;13.90;3.67;;;15.20;99.90;;;;;;5114340;28;20038;-77
2022/11/17 10:46:56;;;;;;;11.05;3.45;;;15.10;99.90;;;;;;5114108;27;20111;-77
2022/11/17 10:49:25;;;;;;;12.40;3.70;;;15.10;99.90;;;;;;5110456;28;20023;-77
2022/11/17 10:52:05;;;;;;;12.32;3.70;;;15.20;99.90;;;;;;5093285;28;20524;-77
2022/11/17 10:54:31;;;;;;;12.43;3.85;;;15.20;99.90;;;;;;5093492;28;20070;-77
2022/11/17 10:57:00;;;;;;;13.18;3.70;;;15.20;99.90;;;;;;5093189;28;20409;-77
2022/11/17 10:59:29;;;;;;;10.77;3.33;;;15.30;99.90;;;;;;5093722;28;20016;-78
2022/11/17 11:01:54;;;;;;;15.77;4.03;;;15.40;99.90;;;;;;5093106;28;20032;-77
2022/11/17 11:04:29;;;;;;;12.07;3.78;;;15.50;99.90;;;;;;5093434;28;20070;-77
2022/11/17 11:07:21;;;;;;;13.65;3.50;;;15.50;99.90;;;;;;5093210;28;20099;-77
2022/11/17 11:10:01;;;;;;;11.73;3.55;;;15.60;99.90;;;;;;5091447;28;20493;-78
2022/11/17 11:12:40;;;;;;;12.63;3.30;;;15.70;99.90;;;;;;5093060;28;20020;-77
2022/11/17 11:15:12;;;;;;;9.95;3.38;;;15.70;99.90;;;;;;5093126;28;20012;-78
2022/11/17 11:17:38;;;;;;;9.02;3.08;;;15.80;99.90;;;;;;5091711;28;20054;-77
2022/11/17 11:20:11;;;;;;;10.02;3.28;;;15.80;99.90;;;;;;5092920;28;20020;-78
2022/11/17 11:22:52;;;;;;;12.25;3.50;;;15.90;99.90;;;;;;5093186;28;20028;-78
2022/11/17 11:25:26;;;;;;;8.15;3.00;;;16.20;99.90;;;;;;5092076;28;20048;-78
2022/11/17 11:28:21;;;;;;;8.25;3.00;;;16.10;99.90;;;;;;5073388;28;20078;-78
2022/11/17 11:31:05;;;;;;;10.15;3.05;;;16.30;99.90;;;;;;5072726;28;20027;-78
2022/11/17 11:33:37;;;;;;;10.20;3.60;;;16.20;99.90;;;;;;5072675;28;20082;-78
2022/11/17 11:36:20;;;;;;;10.73;3.38;;;16.40;99.90;;;;;;5071975;28;20060;-78
2022/11/17 11:38:45;;;;;;;18.48;5.65;;;16.50;99.90;;;;;;5071164;28;20032;-78
2022/11/17 11:41:47;;;;;;;16.90;4.05;;;16.50;99.90;;;;;;5077452;28;20077;-78
2022/11/17 11:44:49;;;;;;;10.98;3.85;;;16.50;99.90;;;;;;5113228;28;20505;-78
2022/11/17 11:47:39;;;;;;;19.45;5.55;;;16.40;99.90;;;;;;5112862;28;20084;-78
2022/11/17 11:50:14;;;;;;;14.75;4.57;;;16.30;99.90;;;;;;5101738;28;20047;-78
2022/11/17 11:52:47;;;;;;;14.95;4.78;;;16.30;99.90;;;;;;5092417;28;20051;-78
2022/11/17 11:55:25;;;;;;;17.77;4.28;;;16.30;99.90;;;;;;5092279;28;20055;-78
2022/11/17 11:58:04;;;;;;;20.15;5.40;;;16.40;99.90;;;;;;5092326;28;20220;-77
2022/11/17 12:00:31;;;;;;;18.45;5.07;;;16.40;99.90;;;;;;5091220;28;20093;-78
2022/11/17 12:03:19;;;;;;;15.05;5.05;;;16.50;99.90;;;;;;5092551;28;20019;-78
2022/11/17 12:05:57;;;;;;;17.63;5.20;;;16.50;99.90;;;;;;5092322;28;20016;-78
2022/11/17 12:08:36;;;;;;;14.95;4.78;;;16.50;99.90;;;;;;5092599;28;20023;-78
2022/11/17 12:13:55;;;;;;;23.50;5.72;;;16.50;99.90;;;;;;5092272;28;20073;-78
2022/11/17 12:16:43;;;;;;;23.67;5.68;;;16.80;99.90;;;;;;5092075;28;20034;-78
2022/11/17 12:19:43;;;;;;;29.08;6.53;;;17.20;99.90;;;;;;5092150;28;20032;-78
2022/11/17 12:22:32;;;;;;;20.48;5.85;;;17.40;99.90;;;;;;5092133;28;20135;-78
2022/11/17 12:25:12;;;;;;;22.70;5.43;;;17.40;99.90;;;;;;5090431;28;20074;-78
2022/11/17 12:27:38;;;;;;;14.43;4.90;;;17.50;99.90;;;;;;5074470;28;20028;-78
2022/11/17 12:30:30;;;;;;;16.55;4.78;;;17.10;99.90;;;;;;5070722;28;20509;-78
2022/11/17 12:32:56;;;;;;;;;;;16.90;99.90;;;;;;5070290;28;20032;-78
2022/11/17 12:35:27;;;;;;;19.10;4.93;;;16.70;99.90;;;;;;5071934;28;19908;-77
2022/11/17 12:38:12;;;;;;;;;;;16.80;99.90;;;;;;5070993;28;20128;-78
2022/11/17 12:40:37;;;;;;;22.40;5.88;;;16.90;99.90;;;;;;5071599;28;19943;-77
2022/11/17 12:43:16;;;;;;;18.42;5.30;;;17.10;99.90;;;;;;5107407;28;20016;-78
2022/11/17 12:45:57;;;;;;;18.58;4.97;;;17.10;99.90;;;;;;5112346;28;20031;-78
2022/11/17 12:48:30;;;;;;;19.63;5.55;;;17.10;99.90;;;;;;5116414;28;20049;-78
2022/11/17 12:51:14;;;;;;;21.67;4.85;;;17.20;99.90;;;;;;5099615;28;20028;-77
2022/11/17 12:54:18;;;;;;;14.20;4.45;;;17.40;99.90;;;;;;5096042;28;20074;-77
2022/11/17 12:57:05;;;;;;;13.55;4.10;;;17.50;99.90;;;;;;5095573;28;20035;-77
2022/11/17 13:00:09;;;;;;;13.73;4.50;;;17.60;99.90;;;;;;5095812;28;20485;-77
2022/11/17 13:02:59;;;;;;;19.52;4.97;;;17.60;99.90;;;;;;5095645;28;20020;-77
2022/11/17 13:05:29;;;;;;;22.48;5.25;;;17.30;99.90;;;;;;5095877;28;20134;-77
2022/11/17 13:08:10;;;;;;;16.85;5.00;;;17.00;99.90;;;;;;5095444;28;20020;-78
2022/11/17 13:10:35;;;;;;;15.23;4.18;;;16.80;99.90;;;;;;5093958;28;20417;-78
2022/11/17 13:13:20;;;;;;;13.05;3.80;;;16.70;99.90;;;;;;5095276;28;20508;-78
2022/11/17 13:15:58;;;;;;;18.60;5.07;;;16.70;99.90;;;;;;5093900;28;20177;-77
2022/11/17 13:18:26;;;;;;;17.98;5.65;;;16.70;99.90;;;;;;5093960;28;20016;-78
2022/11/17 13:20:52;;;;;;;16.50;4.72;;;16.60;99.90;;;;;;5093938;28;20062;-77
2022/11/17 13:23:26;;;;;;;14.07;5.07;;;16.70;99.90;;;;;;5095376;28;20044;-77
2022/11/17 13:26:15;;;;;;;16.10;4.78;;;16.60;99.90;;;;;;5091834;28;20060;-77
2022/11/17 13:28:41;;;;;;;20.13;5.43;;;16.50;99.90;;;;;;5074884;28;20028;-78
2022/11/17 13:31:22;;;;;;;16.05;4.70;;;16.50;99.90;;;;;;5074503;28;20024;-78
2022/11/17 13:34:17;;;;;;;;;;;16.50;99.90;;;;;;5073980;28;20032;-78
2022/11/17 13:36:57;;;;;;;14.57;4.93;;;16.40;99.90;;;;;;5061577;28;19905;-78